Decoded Metar for KMCW (MASON CITY in IA, USA) (IATA:MCW) | Meteo·Mobile Aviation Weather
aviador You're here:

KMCW Decoded Metar

MASON CITY in IA, USA
Report Time2018-09-20 02:01:00
UTC Time2018-09-20 02:16:22
Flight Rules vfr VFR
Wind080° at 09 kt
W.Decomp.*RWY 12: 6.4 kt HW 6.4 kt LCW
RWY 36: 2.3 kt HW 8.7 kt RCW
W.Rank080° ranks 31
Current wind is above 080° avg. (7.5)
Visibility9999 m
Phenomena:Light Rain
Vicinity thunderstorm
Clouds:Overcast 075 Hf
Ceiling7,500 ft
Temp19°C (ISA +6)
Dew Point19°C (100% RH)
QNH1013 hPa
Density Alt2,257 ft
Elevation1,211 ft
Report Wrong Elevation
Raw Report
KMCW 200201Z AUTO 08009KT 10SM VCTS -RA OVC075 19/19 A2992 RMK AO2
LTG DSNT ALQDS RAB0154 P0000 T01940194=

Extra information for KMCW:More info

Metar Taf Metar & Taf Last 4 Metars F.Rules Stats Wind Profile Meteogram Temp Stats Airport Information Weather charts Add Link Nearby VenuesMetar ALERT Operation Metar Decoded Social comments

AIRNAV info for KMCW